sensor_id;sensor_type;location;lat;lon;timestamp;pressure;altitude;pressure_sealevel;temperature;humidity
61537;BME280;48695;53.480;-6.300;2022-08-06T00:02:10;102410.03;;;16.57;48.41
61537;BME280;48695;53.480;-6.300;2022-08-06T00:04:35;102405.78;;;16.50;48.18
61537;BME280;48695;53.480;-6.300;2022-08-06T00:07:01;102393.69;;;16.40;48.42
61537;BME280;48695;53.480;-6.300;2022-08-06T00:09:26;102404.19;;;16.43;48.71
61537;BME280;48695;53.480;-6.300;2022-08-06T00:11:59;102393.88;;;16.30;48.19
61537;BME280;48695;53.480;-6.300;2022-08-06T00:14:26;102399.16;;;16.30;48.48
61537;BME280;48695;53.480;-6.300;2022-08-06T00:16:51;102401.00;;;16.25;48.50
61537;BME280;48695;53.480;-6.300;2022-08-06T00:19:17;102393.31;;;16.15;48.60
61537;BME280;48695;53.480;-6.300;2022-08-06T00:21:42;102402.94;;;16.17;49.23
61537;BME280;48695;53.480;-6.300;2022-08-06T00:24:08;102402.16;;;16.12;49.48
61537;BME280;48695;53.480;-6.300;2022-08-06T00:26:33;102394.34;;;16.06;49.51
61537;BME280;48695;53.480;-6.300;2022-08-06T00:28:59;102392.69;;;16.02;49.30
61537;BME280;48695;53.480;-6.300;2022-08-06T00:31:24;102375.47;;;15.82;49.70
61537;BME280;48695;53.480;-6.300;2022-08-06T00:33:50;102397.25;;;15.91;49.83
61537;BME280;48695;53.480;-6.300;2022-08-06T00:36:15;102393.00;;;15.83;49.95
61537;BME280;48695;53.480;-6.300;2022-08-06T00:38:40;102395.72;;;15.79;49.64
61537;BME280;48695;53.480;-6.300;2022-08-06T00:41:06;102398.41;;;15.74;50.06
61537;BME280;48695;53.480;-6.300;2022-08-06T00:43:31;102389.75;;;15.68;49.98
61537;BME280;48695;53.480;-6.300;2022-08-06T00:45:57;102398.56;;;15.65;49.99
61537;BME280;48695;53.480;-6.300;2022-08-06T00:48:23;102399.47;;;15.63;50.27
61537;BME280;48695;53.480;-6.300;2022-08-06T00:50:48;102397.78;;;15.58;50.88
61537;BME280;48695;53.480;-6.300;2022-08-06T00:53:13;102406.63;;;15.54;50.94
61537;BME280;48695;53.480;-6.300;2022-08-06T00:55:39;102399.66;;;15.52;50.49
61537;BME280;48695;53.480;-6.300;2022-08-06T00:58:05;102404.03;;;15.50;50.92
61537;BME280;48695;53.480;-6.300;2022-08-06T01:00:32;102394.63;;;15.37;50.51
61537;BME280;48695;53.480;-6.300;2022-08-06T01:02:58;102403.31;;;15.42;50.51
61537;BME280;48695;53.480;-6.300;2022-08-06T01:05:23;102395.47;;;15.39;50.87
61537;BME280;48695;53.480;-6.300;2022-08-06T01:07:49;102395.50;;;15.36;51.22
61537;BME280;48695;53.480;-6.300;2022-08-06T01:10:14;102397.28;;;15.34;50.91
61537;BME280;48695;53.480;-6.300;2022-08-06T01:12:39;102390.31;;;15.29;50.87
61537;BME280;48695;53.480;-6.300;2022-08-06T01:15:05;102376.50;;;15.15;51.15
61537;BME280;48695;53.480;-6.300;2022-08-06T01:17:43;102386.06;;;15.22;49.88
61537;BME280;48695;53.480;-6.300;2022-08-06T01:23:37;102399.34;;;15.13;49.91
61537;BME280;48695;53.480;-6.300;2022-08-06T01:28:46;102392.47;;;15.03;51.20
61537;BME280;48695;53.480;-6.300;2022-08-06T01:31:20;102392.56;;;14.97;51.07
61537;BME280;48695;53.480;-6.300;2022-08-06T01:33:56;102392.59;;;14.95;50.85
61537;BME280;48695;53.480;-6.300;2022-08-06T01:36:31;102384.84;;;14.85;50.75
61537;BME280;48695;53.480;-6.300;2022-08-06T01:39:00;102395.28;;;14.89;51.83
61537;BME280;48695;53.480;-6.300;2022-08-06T01:41:38;102391.84;;;14.86;51.77
61537;BME280;48695;53.480;-6.300;2022-08-06T01:44:09;102384.03;;;14.79;51.46
61537;BME280;48695;53.480;-6.300;2022-08-06T01:46:36;102394.59;;;14.76;52.00
61537;BME280;48695;53.480;-6.300;2022-08-06T01:49:04;102390.28;;;14.72;51.69
61537;BME280;48695;53.480;-6.300;2022-08-06T01:51:31;102394.69;;;14.70;48.98
61537;BME280;48695;53.480;-6.300;2022-08-06T01:54:02;102391.19;;;14.68;51.47
61537;BME280;48695;53.480;-6.300;2022-08-06T01:56:30;102397.38;;;14.66;52.05
61537;BME280;48695;53.480;-6.300;2022-08-06T01:58:58;102393.00;;;14.63;52.33
61537;BME280;48695;53.480;-6.300;2022-08-06T02:01:26;102391.31;;;14.59;52.39
61537;BME280;48695;53.480;-6.300;2022-08-06T02:03:54;102390.50;;;14.54;52.57
61537;BME280;48695;53.480;-6.300;2022-08-06T02:06:24;102380.91;;;14.47;52.01
61537;BME280;48695;53.480;-6.300;2022-08-06T02:08:52;102393.19;;;14.48;51.99
61537;BME280;48695;53.480;-6.300;2022-08-06T02:11:18;102373.94;;;14.43;52.37
61537;BME280;48695;53.480;-6.300;2022-08-06T02:13:44;102389.78;;;14.40;52.20
61537;BME280;48695;53.480;-6.300;2022-08-06T02:16:11;102398.59;;;14.33;52.54
61537;BME280;48695;53.480;-6.300;2022-08-06T02:18:40;102403.00;;;14.31;53.01
61537;BME280;48695;53.480;-6.300;2022-08-06T02:21:10;102406.53;;;14.28;52.71
61537;BME280;48695;53.480;-6.300;2022-08-06T02:23:38;102406.56;;;14.26;52.44
61537;BME280;48695;53.480;-6.300;2022-08-06T02:26:04;102403.94;;;14.23;53.34
61537;BME280;48695;53.480;-6.300;2022-08-06T02:28:32;102397.88;;;14.20;53.01
61537;BME280;48695;53.480;-6.300;2022-08-06T02:30:59;102387.44;;;14.12;53.38
61537;BME280;48695;53.480;-6.300;2022-08-06T02:33:25;102410.16;;;14.19;53.22
61537;BME280;48695;53.480;-6.300;2022-08-06T02:36:04;102406.63;;;14.19;51.96
61537;BME280;48695;53.480;-6.300;2022-08-06T02:41:20;102405.78;;;14.14;53.06
61537;BME280;48695;53.480;-6.300;2022-08-06T02:43:55;102402.34;;;14.10;52.94
61537;BME280;48695;53.480;-6.300;2022-08-06T02:46:25;102397.13;;;14.06;53.24
61537;BME280;48695;53.480;-6.300;2022-08-06T02:48:59;102386.66;;;14.04;53.03
61537;BME280;48695;53.480;-6.300;2022-08-06T02:51:30;102388.41;;;14.02;52.94
61537;BME280;48695;53.480;-6.300;2022-08-06T02:54:02;102392.81;;;14.00;53.64
61537;BME280;48695;53.480;-6.300;2022-08-06T02:56:31;102389.34;;;13.96;54.24
61537;BME280;48695;53.480;-6.300;2022-08-06T02:58:59;102394.63;;;13.95;53.26
61537;BME280;48695;53.480;-6.300;2022-08-06T03:01:35;102385.91;;;13.91;53.31
61537;BME280;48695;53.480;-6.300;2022-08-06T03:04:03;102384.19;;;13.87;53.55
61537;BME280;48695;53.480;-6.300;2022-08-06T03:06:32;102385.09;;;13.82;54.42
61537;BME280;48695;53.480;-6.300;2022-08-06T03:09:00;102385.13;;;13.79;53.77
61537;BME280;48695;53.480;-6.300;2022-08-06T03:11:30;102374.69;;;13.72;53.97
61537;BME280;48695;53.480;-6.300;2022-08-06T03:13:58;102372.94;;;13.71;54.54
61537;BME280;48695;53.480;-6.300;2022-08-06T03:16:25;102379.09;;;13.67;54.66
61537;BME280;48695;53.480;-6.300;2022-08-06T03:18:52;102383.53;;;13.62;54.85
61537;BME280;48695;53.480;-6.300;2022-08-06T03:21:21;102380.97;;;13.55;54.49
61537;BME280;48695;53.480;-6.300;2022-08-06T03:23:46;102381.84;;;13.52;51.15
61537;BME280;48695;53.480;-6.300;2022-08-06T03:26:13;102373.22;;;13.39;54.54
61537;BME280;48695;53.480;-6.300;2022-08-06T03:28:39;102385.47;;;13.39;55.04
61537;BME280;48695;53.480;-6.300;2022-08-06T03:31:06;102379.41;;;13.34;55.13
61537;BME280;48695;53.480;-6.300;2022-08-06T03:33:32;102382.91;;;13.30;55.32
61537;BME280;48695;53.480;-6.300;2022-08-06T03:36:00;102368.09;;;13.16;55.25
61537;BME280;48695;53.480;-6.300;2022-08-06T03:38:27;102387.34;;;13.21;51.53
61537;BME280;48695;53.480;-6.300;2022-08-06T03:40:54;102381.22;;;13.18;55.34
61537;BME280;48695;53.480;-6.300;2022-08-06T03:43:20;102379.50;;;13.14;55.74
61537;BME280;48695;53.480;-6.300;2022-08-06T03:45:52;102383.00;;;13.13;55.36
61537;BME280;48695;53.480;-6.300;2022-08-06T03:48:23;102382.09;;;13.12;55.27
61537;BME280;48695;53.480;-6.300;2022-08-06T03:50:49;102381.25;;;13.07;55.99
61537;BME280;48695;53.480;-6.300;2022-08-06T03:53:23;102382.16;;;13.09;55.34
61537;BME280;48695;53.480;-6.300;2022-08-06T03:55:50;102392.66;;;13.06;56.38
61537;BME280;48695;53.480;-6.300;2022-08-06T03:58:18;102391.78;;;13.06;56.40
61537;BME280;48695;53.480;-6.300;2022-08-06T04:00:49;102391.78;;;13.04;55.62
61537;BME280;48695;53.480;-6.300;2022-08-06T04:03:17;102389.16;;;13.03;56.59
61537;BME280;48695;53.480;-6.300;2022-08-06T04:05:43;102372.63;;;12.90;56.49
61537;BME280;48695;53.480;-6.300;2022-08-06T04:08:10;102397.94;;;13.00;55.88
61537;BME280;48695;53.480;-6.300;2022-08-06T04:10:40;102390.06;;;12.97;56.01
61537;BME280;48695;53.480;-6.300;2022-08-06T04:13:09;102395.31;;;13.00;56.06
61537;BME280;48695;53.480;-6.300;2022-08-06T04:15:36;102397.94;;;12.97;56.33
61537;BME280;48695;53.480;-6.300;2022-08-06T04:18:07;102387.44;;;13.00;56.24
61537;BME280;48695;53.480;-6.300;2022-08-06T04:20:34;102399.69;;;12.98;56.54
61537;BME280;48695;53.480;-6.300;2022-08-06T04:23:00;102398.81;;;12.99;56.55
61537;BME280;48695;53.480;-6.300;2022-08-06T04:25:28;102399.69;;;12.98;56.41
61537;BME280;48695;53.480;-6.300;2022-08-06T04:27:55;102391.00;;;12.93;56.88
61537;BME280;48695;53.480;-6.300;2022-08-06T04:30:22;102399.72;;;12.95;56.74
61537;BME280;48695;53.480;-6.300;2022-08-06T04:32:49;102398.84;;;12.93;57.14
61537;BME280;48695;53.480;-6.300;2022-08-06T04:35:15;102388.38;;;12.87;56.93
61537;BME280;48695;53.480;-6.300;2022-08-06T04:37:41;102386.66;;;12.83;56.68
61537;BME280;48695;53.480;-6.300;2022-08-06T04:40:09;102402.34;;;12.93;56.88
61537;BME280;48695;53.480;-6.300;2022-08-06T04:42:35;102399.72;;;12.92;56.70
61537;BME280;48695;53.480;-6.300;2022-08-06T04:45:01;102403.22;;;12.89;57.41
61537;BME280;48695;53.480;-6.300;2022-08-06T04:47:31;102394.53;;;12.83;56.73
61537;BME280;48695;53.480;-6.300;2022-08-06T04:49:56;102405.84;;;12.86;56.86
61537;BME280;48695;53.480;-6.300;2022-08-06T04:52:24;102403.25;;;12.85;57.39
61537;BME280;48695;53.480;-6.300;2022-08-06T04:54:51;102400.63;;;12.85;57.43
61537;BME280;48695;53.480;-6.300;2022-08-06T04:57:16;102378.84;;;12.70;57.57
61537;BME280;48695;53.480;-6.300;2022-08-06T04:59:42;102405.88;;;12.85;57.75
61537;BME280;48695;53.480;-6.300;2022-08-06T05:02:08;102408.50;;;12.85;57.35
61537;BME280;48695;53.480;-6.300;2022-08-06T05:04:33;102382.34;;;12.72;57.25
61537;BME280;48695;53.480;-6.300;2022-08-06T05:07:01;102401.53;;;12.84;57.77
61537;BME280;48695;53.480;-6.300;2022-08-06T05:09:30;102403.25;;;12.85;57.75
61537;BME280;48695;53.480;-6.300;2022-08-06T05:12:09;102411.97;;;12.87;56.05
61537;BME280;48695;53.480;-6.300;2022-08-06T05:14:40;102407.63;;;12.86;57.54
61537;BME280;48695;53.480;-6.300;2022-08-06T05:17:11;102409.34;;;12.87;57.20
61537;BME280;48695;53.480;-6.300;2022-08-06T05:19:42;102413.75;;;12.88;57.71
61537;BME280;48695;53.480;-6.300;2022-08-06T05:22:10;102410.22;;;12.89;57.88
61537;BME280;48695;53.480;-6.300;2022-08-06T05:24:37;102419.84;;;12.90;58.12
61537;BME280;48695;53.480;-6.300;2022-08-06T05:27:03;102416.31;;;12.91;58.13
61537;BME280;48695;53.480;-6.300;2022-08-06T05:29:28;102408.44;;;12.92;57.85
61537;BME280;48695;53.480;-6.300;2022-08-06T05:31:58;102414.56;;;12.96;58.00
61537;BME280;48695;53.480;-6.300;2022-08-06T05:34:24;102408.41;;;12.97;58.44
61537;BME280;48695;53.480;-6.300;2022-08-06T05:36:50;102403.19;;;12.97;58.10
61537;BME280;48695;53.480;-6.300;2022-08-06T05:39:15;102406.69;;;12.99;58.53
61537;BME280;48695;53.480;-6.300;2022-08-06T05:41:40;102410.16;;;13.01;58.29
61537;BME280;48695;53.480;-6.300;2022-08-06T05:44:06;102406.66;;;13.02;58.69
61537;BME280;48695;53.480;-6.300;2022-08-06T05:46:50;102404.91;;;13.04;57.95
61537;BME280;48695;53.480;-6.300;2022-08-06T05:49:28;102397.88;;;13.06;56.94
61537;BME280;48695;53.480;-6.300;2022-08-06T05:55:28;102404.00;;;13.07;57.61
61537;BME280;48695;53.480;-6.300;2022-08-06T05:58:05;102411.88;;;13.05;57.89
61537;BME280;48695;53.480;-6.300;2022-08-06T06:00:32;102415.41;;;13.04;59.21
61537;BME280;48695;53.480;-6.300;2022-08-06T06:03:00;102411.03;;;13.03;58.86
61537;BME280;48695;53.480;-6.300;2022-08-06T06:05:27;102408.38;;;13.06;59.38
61537;BME280;48695;53.480;-6.300;2022-08-06T06:07:53;102411.88;;;13.08;59.21
61537;BME280;48695;53.480;-6.300;2022-08-06T06:10:21;102411.84;;;13.11;59.00
61537;BME280;48695;53.480;-6.300;2022-08-06T06:12:48;102423.22;;;13.12;59.12
61537;BME280;48695;53.480;-6.300;2022-08-06T06:15:14;102422.34;;;13.14;59.30
61537;BME280;48695;53.480;-6.300;2022-08-06T06:18:54;102407.47;;;13.18;57.95
61537;BME280;48695;53.480;-6.300;2022-08-06T06:22:18;102412.69;;;13.18;57.05
61537;BME280;48695;53.480;-6.300;2022-08-06T06:26:59;102434.53;;;13.24;56.67
61537;BME280;48695;53.480;-6.300;2022-08-06T06:32:17;102433.66;;;13.26;59.42
61537;BME280;48695;53.480;-6.300;2022-08-06T06:35:10;102431.03;;;13.29;58.90
61537;BME280;48695;53.480;-6.300;2022-08-06T06:41:36;102430.97;;;13.35;57.78
61537;BME280;48695;53.480;-6.300;2022-08-06T06:46:34;102438.81;;;13.39;58.51
61537;BME280;48695;53.480;-6.300;2022-08-06T06:49:06;102437.06;;;13.41;59.74
61537;BME280;48695;53.480;-6.300;2022-08-06T06:51:44;102423.13;;;13.35;59.90
61537;BME280;48695;53.480;-6.300;2022-08-06T06:54:23;102432.63;;;13.51;58.92
61537;BME280;48695;53.480;-6.300;2022-08-06T06:56:50;102446.59;;;13.53;60.24
61537;BME280;48695;53.480;-6.300;2022-08-06T06:59:22;102436.94;;;13.60;60.06
61537;BME280;48695;53.480;-6.300;2022-08-06T07:01:50;102443.91;;;13.64;60.69
61537;BME280;48695;53.480;-6.300;2022-08-06T07:04:18;102443.00;;;13.69;60.72
61537;BME280;48695;53.480;-6.300;2022-08-06T07:06:45;102435.97;;;13.71;60.57
61537;BME280;48695;53.480;-6.300;2022-08-06T07:09:18;102451.59;;;13.87;59.73
61537;BME280;48695;53.480;-6.300;2022-08-06T07:11:45;102453.31;;;13.91;60.83
61537;BME280;48695;53.480;-6.300;2022-08-06T07:14:14;102459.38;;;13.99;60.76
61537;BME280;48695;53.480;-6.300;2022-08-06T07:16:41;102442.75;;;13.97;60.45
61537;BME280;48695;53.480;-6.300;2022-08-06T07:19:08;102444.41;;;14.07;60.77
61537;BME280;48695;53.480;-6.300;2022-08-06T07:21:35;102458.28;;;14.21;60.32
61537;BME280;48695;53.480;-6.300;2022-08-06T07:24:02;102458.25;;;14.24;60.38
61537;BME280;48695;53.480;-6.300;2022-08-06T07:26:29;102459.88;;;14.36;60.38
61537;BME280;48695;53.480;-6.300;2022-08-06T07:28:56;102455.47;;;14.40;60.21
61537;BME280;48695;53.480;-6.300;2022-08-06T07:31:26;102461.50;;;14.52;59.75
61537;BME280;48695;53.480;-6.300;2022-08-06T07:33:52;102456.19;;;14.57;60.45
61537;BME280;48695;53.480;-6.300;2022-08-06T07:36:21;102452.59;;;14.66;60.23
61537;BME280;48695;53.480;-6.300;2022-08-06T07:38:48;102445.50;;;14.69;60.31
61537;BME280;48695;53.480;-6.300;2022-08-06T07:41:16;102455.91;;;14.82;60.10
61537;BME280;48695;53.480;-6.300;2022-08-06T07:43:54;102443.50;;;14.90;59.45
61537;BME280;48695;53.480;-6.300;2022-08-06T07:46:21;102447.81;;;14.97;59.25
61537;BME280;48695;53.480;-6.300;2022-08-06T07:48:56;102452.06;;;15.07;58.55
61537;BME280;48695;53.480;-6.300;2022-08-06T07:51:26;102454.59;;;15.13;59.99
61537;BME280;48695;53.480;-6.300;2022-08-06T07:53:53;102458.03;;;15.20;60.19
61537;BME280;48695;53.480;-6.300;2022-08-06T07:56:20;102443.09;;;15.20;59.58
61537;BME280;48695;53.480;-6.300;2022-08-06T07:58:47;102458.66;;;15.37;59.56
61537;BME280;48695;53.480;-6.300;2022-08-06T08:01:14;102456.78;;;15.47;59.48
61537;BME280;48695;53.480;-6.300;2022-08-06T08:03:41;102455.75;;;15.57;59.16
61537;BME280;48695;53.480;-6.300;2022-08-06T08:06:25;102453.88;;;15.65;58.79
61537;BME280;48695;53.480;-6.300;2022-08-06T08:09:15;102453.66;;;15.79;56.90
61537;BME280;48695;53.480;-6.300;2022-08-06T08:11:42;102447.56;;;15.75;57.92
61537;BME280;48695;53.480;-6.300;2022-08-06T08:14:09;102469.25;;;15.91;57.56
61537;BME280;48695;53.480;-6.300;2022-08-06T08:16:36;102466.53;;;15.97;57.96
61537;BME280;48695;53.480;-6.300;2022-08-06T08:19:02;102471.66;;;16.05;57.83
61537;BME280;48695;53.480;-6.300;2022-08-06T08:21:28;102466.28;;;16.11;57.38
61537;BME280;48695;53.480;-6.300;2022-08-06T08:23:55;102471.38;;;16.20;57.19
61537;BME280;48695;53.480;-6.300;2022-08-06T08:26:20;102464.22;;;16.27;57.30
61537;BME280;48695;53.480;-6.300;2022-08-06T08:28:46;102457.09;;;16.33;56.73
61537;BME280;48695;53.480;-6.300;2022-08-06T08:31:12;102436.91;;;16.32;57.02
61537;BME280;48695;53.480;-6.300;2022-08-06T08:33:39;102458.53;;;16.50;56.87
61537;BME280;48695;53.480;-6.300;2022-08-06T08:36:05;102458.41;;;16.56;57.04
61537;BME280;48695;53.480;-6.300;2022-08-06T08:38:32;102463.50;;;16.65;56.91
61537;BME280;48695;53.480;-6.300;2022-08-06T08:41:11;102463.28;;;16.77;56.08
61537;BME280;48695;53.480;-6.300;2022-08-06T08:43:48;102453.41;;;16.87;56.04
61537;BME280;48695;53.480;-6.300;2022-08-06T08:46:15;102438.59;;;16.81;56.08
61537;BME280;48695;53.480;-6.300;2022-08-06T08:48:42;102452.09;;;17.08;54.63
61537;BME280;48695;53.480;-6.300;2022-08-06T08:51:08;102445.97;;;17.06;56.15
61537;BME280;48695;53.480;-6.300;2022-08-06T08:53:39;102445.84;;;17.14;56.14
61537;BME280;48695;53.480;-6.300;2022-08-06T08:56:06;102448.28;;;17.21;55.75
61537;BME280;48695;53.480;-6.300;2022-08-06T08:58:32;102452.56;;;17.27;56.01
61537;BME280;48695;53.480;-6.300;2022-08-06T09:01:02;102435.84;;;17.26;55.48
61537;BME280;48695;53.480;-6.300;2022-08-06T09:03:27;102445.25;;;17.38;55.23
61537;BME280;48695;53.480;-6.300;2022-08-06T09:05:53;102428.53;;;17.39;55.20
61537;BME280;48695;53.480;-6.300;2022-08-06T09:08:18;102433.53;;;17.50;55.70
61537;BME280;48695;53.480;-6.300;2022-08-06T09:10:44;102434.19;;;17.59;55.28
61537;BME280;48695;53.480;-6.300;2022-08-06T09:13:10;102443.56;;;17.74;55.51
61537;BME280;48695;53.480;-6.300;2022-08-06T09:15:35;102455.47;;;17.91;55.57
61537;BME280;48695;53.480;-6.300;2022-08-06T09:18:01;102446.06;;;18.13;55.11
61537;BME280;48695;53.480;-6.300;2022-08-06T09:20:26;102444.53;;;18.37;54.70
61537;BME280;48695;53.480;-6.300;2022-08-06T09:22:51;102444.72;;;18.62;54.39
61537;BME280;48695;53.480;-6.300;2022-08-06T09:25:37;102440.09;;;19.00;53.51
61537;BME280;48695;53.480;-6.300;2022-08-06T09:28:09;102446.31;;;19.28;53.32
61537;BME280;48695;53.480;-6.300;2022-08-06T09:30:34;102451.78;;;19.50;52.92
61537;BME280;48695;53.480;-6.300;2022-08-06T09:33:00;102456.25;;;19.76;52.75
61537;BME280;48695;53.480;-6.300;2022-08-06T09:35:27;102449.97;;;20.05;52.06
61537;BME280;48695;53.480;-6.300;2022-08-06T09:38:02;102452.19;;;20.42;52.20
61537;BME280;48695;53.480;-6.300;2022-08-06T09:40:28;102460.38;;;20.61;51.88
61537;BME280;48695;53.480;-6.300;2022-08-06T09:42:53;102451.44;;;20.87;51.26
61537;BME280;48695;53.480;-6.300;2022-08-06T09:45:20;102452.97;;;21.16;50.52
61537;BME280;48695;53.480;-6.300;2022-08-06T09:47:47;102446.59;;;21.44;50.40
61537;BME280;48695;53.480;-6.300;2022-08-06T09:50:13;102455.97;;;21.74;49.29
61537;BME280;48695;53.480;-6.300;2022-08-06T09:52:39;102443.81;;;21.89;49.07
61537;BME280;48695;53.480;-6.300;2022-08-06T09:55:05;102470.63;;;22.27;47.99
61537;BME280;48695;53.480;-6.300;2022-08-06T09:57:43;102465.38;;;22.65;48.16
61537;BME280;48695;53.480;-6.300;2022-08-06T10:00:09;102461.88;;;22.83;47.11
61537;BME280;48695;53.480;-6.300;2022-08-06T10:02:35;102461.25;;;23.16;47.15
61537;BME280;48695;53.480;-6.300;2022-08-06T10:05:11;102459.19;;;23.59;47.19
61537;BME280;48695;53.480;-6.300;2022-08-06T10:07:37;102451.84;;;23.64;45.27
61537;BME280;48695;53.480;-6.300;2022-08-06T10:10:05;102458.84;;;23.84;45.08
61537;BME280;48695;53.480;-6.300;2022-08-06T10:12:31;102456.97;;;23.86;44.81
61537;BME280;48695;53.480;-6.300;2022-08-06T10:14:58;102454.00;;;24.09;45.48
61537;BME280;48695;53.480;-6.300;2022-08-06T10:17:26;102454.50;;;24.33;44.03
61537;BME280;48695;53.480;-6.300;2022-08-06T10:20:11;102453.19;;;24.75;45.82
61537;BME280;48695;53.480;-6.300;2022-08-06T10:22:52;102453.56;;;25.00;44.70
61537;BME280;48695;53.480;-6.300;2022-08-06T10:25:20;102444.72;;;25.16;43.28
61537;BME280;48695;53.480;-6.300;2022-08-06T10:27:46;102436.16;;;25.41;42.52
61537;BME280;48695;53.480;-6.300;2022-08-06T10:30:12;102452.13;;;25.72;41.86
61537;BME280;48695;53.480;-6.300;2022-08-06T10:32:46;102438.94;;;25.99;42.27
61537;BME280;48695;53.480;-6.300;2022-08-06T10:35:15;102442.13;;;26.20;41.49
61537;BME280;48695;53.480;-6.300;2022-08-06T10:37:44;102451.72;;;26.38;41.50
61537;BME280;48695;53.480;-6.300;2022-08-06T10:40:13;102443.81;;;26.65;40.95
61537;BME280;48695;53.480;-6.300;2022-08-06T10:42:40;102428.09;;;26.88;39.75
61537;BME280;48695;53.480;-6.300;2022-08-06T10:45:08;102434.75;;;27.24;39.94
61537;BME280;48695;53.480;-6.300;2022-08-06T10:47:34;102424.91;;;27.37;38.77
61537;BME280;48695;53.480;-6.300;2022-08-06T10:50:01;102434.59;;;27.39;37.69
61537;BME280;48695;53.480;-6.300;2022-08-06T10:52:27;102427.81;;;27.34;37.88
61537;BME280;48695;53.480;-6.300;2022-08-06T10:54:54;102435.16;;;27.18;38.65
61537;BME280;48695;53.480;-6.300;2022-08-06T10:57:22;102421.38;;;26.95;38.44
61537;BME280;48695;53.480;-6.300;2022-08-06T10:59:47;102431.53;;;26.90;38.24
61537;BME280;48695;53.480;-6.300;2022-08-06T11:02:45;102417.44;;;26.86;39.91
61537;BME280;48695;53.480;-6.300;2022-08-06T11:05:18;102427.81;;;26.78;39.37
61537;BME280;48695;53.480;-6.300;2022-08-06T11:08:23;102426.56;;;26.84;39.99
61537;BME280;48695;53.480;-6.300;2022-08-06T11:15:48;102414.81;;;26.72;39.34
61537;BME280;48695;53.480;-6.300;2022-08-06T11:18:14;102419.09;;;26.75;38.77
61537;BME280;48695;53.480;-6.300;2022-08-06T11:20:53;102417.97;;;26.79;38.99
61537;BME280;48695;53.480;-6.300;2022-08-06T11:25:48;102417.78;;;26.82;38.92
61537;BME280;48695;53.480;-6.300;2022-08-06T11:30:58;102420.97;;;27.15;38.37
61537;BME280;48695;53.480;-6.300;2022-08-06T11:36:03;102408.00;;;27.49;38.16
61537;BME280;48695;53.480;-6.300;2022-08-06T11:43:48;102406.97;;;27.64;36.83
61537;BME280;48695;53.480;-6.300;2022-08-06T11:46:24;102406.09;;;27.64;37.08
61537;BME280;48695;53.480;-6.300;2022-08-06T11:51:45;102412.03;;;27.42;38.50
61537;BME280;48695;53.480;-6.300;2022-08-06T11:59:31;102414.88;;;27.53;37.35
61537;BME280;48695;53.480;-6.300;2022-08-06T12:01:59;102405.19;;;27.51;36.67
61537;BME280;48695;53.480;-6.300;2022-08-06T12:07:28;102408.44;;;27.56;38.15
61537;BME280;48695;53.480;-6.300;2022-08-06T12:12:38;102403.09;;;27.29;37.60
61537;BME280;48695;53.480;-6.300;2022-08-06T12:17:40;102390.53;;;27.02;37.62
61537;BME280;48695;53.480;-6.300;2022-08-06T12:20:07;102404.13;;;26.99;37.70
61537;BME280;48695;53.480;-6.300;2022-08-06T12:22:35;102414.84;;;26.99;37.35
61537;BME280;48695;53.480;-6.300;2022-08-06T12:25:03;102413.72;;;26.89;37.68
61537;BME280;48695;53.480;-6.300;2022-08-06T12:27:34;102407.63;;;26.73;37.46
61537;BME280;48695;53.480;-6.300;2022-08-06T12:30:01;102408.31;;;26.62;38.17
61537;BME280;48695;53.480;-6.300;2022-08-06T12:32:31;102419.72;;;26.51;37.75
61537;BME280;48695;53.480;-6.300;2022-08-06T12:34:59;102420.06;;;26.45;37.85
61537;BME280;48695;53.480;-6.300;2022-08-06T12:37:43;102420.34;;;26.40;38.53
61537;BME280;48695;53.480;-6.300;2022-08-06T12:40:11;102424.84;;;26.26;38.38
61537;BME280;48695;53.480;-6.300;2022-08-06T12:45:29;102402.53;;;25.97;39.42
61537;BME280;48695;53.480;-6.300;2022-08-06T12:48:06;102413.03;;;26.00;39.60
61537;BME280;48695;53.480;-6.300;2022-08-06T12:50:32;102413.44;;;26.08;39.85
61537;BME280;48695;53.480;-6.300;2022-08-06T12:53:13;102415.66;;;26.16;40.11
61537;BME280;48695;53.480;-6.300;2022-08-06T12:55:49;102409.44;;;26.29;39.20
61537;BME280;48695;53.480;-6.300;2022-08-06T12:58:20;102415.34;;;26.34;39.05
61537;BME280;48695;53.480;-6.300;2022-08-06T13:00:53;102409.72;;;26.39;38.74
61537;BME280;48695;53.480;-6.300;2022-08-06T13:03:20;102414.50;;;26.34;38.28
61537;BME280;48695;53.480;-6.300;2022-08-06T13:05:48;102408.97;;;26.23;38.02
61537;BME280;48695;53.480;-6.300;2022-08-06T13:08:14;102406.84;;;26.13;38.15
61537;BME280;48695;53.480;-6.300;2022-08-06T13:10:50;102403.69;;;26.07;38.57
61537;BME280;48695;53.480;-6.300;2022-08-06T13:13:16;102407.38;;;25.90;38.94
61537;BME280;48695;53.480;-6.300;2022-08-06T13:15:42;102395.59;;;25.78;38.61
61537;BME280;48695;53.480;-6.300;2022-08-06T13:18:23;102393.44;;;25.69;39.29
61537;BME280;48695;53.480;-6.300;2022-08-06T13:20:50;102397.53;;;25.60;39.37
61537;BME280;48695;53.480;-6.300;2022-08-06T13:23:27;102395.19;;;25.54;39.43
61537;BME280;48695;53.480;-6.300;2022-08-06T13:25:53;102393.34;;;25.41;40.04
61537;BME280;48695;53.480;-6.300;2022-08-06T13:28:24;102372.59;;;25.30;39.93
61537;BME280;48695;53.480;-6.300;2022-08-06T13:30:50;102382.50;;;25.28;39.77
61537;BME280;48695;53.480;-6.300;2022-08-06T13:33:21;102372.16;;;25.22;39.72
61537;BME280;48695;53.480;-6.300;2022-08-06T13:35:49;102377.25;;;25.26;39.81
61537;BME280;48695;53.480;-6.300;2022-08-06T13:38:29;102380.03;;;25.39;40.36
61537;BME280;48695;53.480;-6.300;2022-08-06T13:40:54;102379.88;;;25.42;39.26
61537;BME280;48695;53.480;-6.300;2022-08-06T13:43:21;102385.56;;;25.52;39.22
61537;BME280;48695;53.480;-6.300;2022-08-06T13:48:30;102371.63;;;25.61;39.54
61537;BME280;48695;53.480;-6.300;2022-08-06T13:50:56;102354.13;;;25.55;39.49
61537;BME280;48695;53.480;-6.300;2022-08-06T13:53:21;102371.00;;;25.72;38.62
61537;BME280;48695;53.480;-6.300;2022-08-06T13:55:47;102369.03;;;25.75;38.65